Terminal Aerodrome Forecast
Issued by NWS

Home | Current Version | Previous Version | Text Only | Print | Product List | Glossary On
Versions: 1 2 3 4 5 6 7 8 9 10 11 12 13 14 15 16 17 18 19 20 21 22 23 24 25 26 27
000
FTUS44 KOHX 040715 AAA
TAFCKV
TAF AMD
KCKV 040715Z 0407/0506 00000KT P6SM BKN012 OVC080
     FM040800 24002KT 3SM BR BKN008
      TEMPO 0408/0412 3/4SM BR BKN004
     FM041500 25006KT P6SM BKN015
     FM041800 25005KT P6SM VCTS BKN050CB=

USA.gov is the U.S. government's official web portal to all federal, state and local government web resources and services.